Time;durP1;ratioP1;P1;durP2;ratioP2;P2;SDS_P1;SDS_P2;PMS_P1;PMS_P2;Temp;Humidity;BMP_temperature;BMP_pressure;BME280_temperature;BME280_humidity;BME280_pressure;Samples;Min_cycle;Max_cycle;Signal;HPM_P1;HPM_P2
2023/11/12 00:01:44;;;;;;;9.73;4.90;;;;;;;;;;5018592;28;20215;-64
2023/11/12 00:04:12;;;;;;;9.73;5.00;;;;;;;;;;5017217;28;20208;-66
2023/11/12 00:06:41;;;;;;;6.43;5.07;;;;;;;;;;5020973;28;20638;-63
2023/11/12 00:09:10;;;;;;;12.80;7.13;;;;;;;;;;5018828;28;20228;-63
2023/11/12 00:11:38;;;;;;;8.83;5.70;;;;;;;;;;5020202;28;20228;-62
2023/11/12 00:14:07;;;;;;;11.93;6.47;;;;;;;;;;5022882;28;20295;-63
2023/11/12 00:16:36;;;;;;;9.73;6.23;;;;;;;;;;5030065;28;20219;-63
2023/11/12 00:19:05;;;;;;;8.33;5.73;;;;;;;;;;5018896;28;20735;-63
2023/11/12 00:21:33;;;;;;;12.57;5.30;;;;;;;;;;5035295;28;20277;-63
2023/11/12 00:24:02;;;;;;;8.03;4.20;;;;;;;;;;5038023;28;20238;-63
2023/11/12 00:26:31;;;;;;;5.87;3.60;;;;;;;;;;5020610;28;20232;-63
2023/11/12 00:29:01;;;;;;;7.07;2.70;;;;;;;;;;5038339;28;20291;-63
2023/11/12 00:31:33;;;;;;;5.40;3.03;;;;;;;;;;5037503;28;20227;-63
2023/11/12 00:34:03;;;;;;;3.37;2.53;;;;;;;;;;5018217;28;20216;-63
2023/11/12 00:36:34;;;;;;;3.17;2.73;;;;;;;;;;5030388;28;20237;-65
2023/11/12 00:39:04;;;;;;;3.97;2.67;;;;;;;;;;5020120;28;20279;-64
2023/11/12 00:41:32;;;;;;;7.60;2.73;;;;;;;;;;5020246;28;20263;-65
2023/11/12 00:44:00;;;;;;;4.10;2.33;;;;;;;;;;5017768;28;20559;-65
2023/11/12 00:46:28;;;;;;;5.03;2.93;;;;;;;;;;5024649;28;20206;-65
2023/11/12 00:48:59;;;;;;;7.10;3.00;;;;;;;;;;5036980;28;20224;-65
2023/11/12 00:51:29;;;;;;;5.13;2.23;;;;;;;;;;5030221;28;20219;-65
2023/11/12 00:53:57;;;;;;;4.30;2.57;;;;;;;;;;5018213;28;20296;-64
2023/11/12 00:56:26;;;;;;;4.80;2.37;;;;;;;;;;5018675;28;20283;-63
2023/11/12 00:58:54;;;;;;;4.27;2.80;;;;;;;;;;5018031;28;20283;-63
2023/11/12 01:01:22;;;;;;;3.87;2.63;;;;;;;;;;5017212;28;21160;-64
2023/11/12 01:03:51;;;;;;;3.10;2.27;;;;;;;;;;5020315;28;20204;-63
2023/11/12 01:06:19;;;;;;;5.93;2.80;;;;;;;;;;5020174;28;20204;-63
2023/11/12 01:08:49;;;;;;;6.97;2.60;;;;;;;;;;5031084;28;20306;-63
2023/11/12 01:11:17;;;;;;;5.13;2.53;;;;;;;;;;5034814;28;20227;-63
2023/11/12 01:13:45;;;;;;;5.70;2.60;;;;;;;;;;5018008;28;20274;-63
2023/11/12 01:16:15;;;;;;;5.23;2.53;;;;;;;;;;5028632;28;20212;-62
2023/11/12 01:18:45;;;;;;;4.00;2.10;;;;;;;;;;5029637;28;20203;-63
2023/11/12 01:21:14;;;;;;;4.73;2.43;;;;;;;;;;5036025;28;20278;-62
2023/11/12 01:23:42;;;;;;;6.07;2.40;;;;;;;;;;5036250;28;20253;-63
2023/11/12 01:26:12;;;;;;;5.43;2.37;;;;;;;;;;5043113;28;20310;-62
2023/11/12 01:28:40;;;;;;;4.87;2.30;;;;;;;;;;5023335;28;20656;-62
2023/11/12 01:31:09;;;;;;;3.40;1.80;;;;;;;;;;5023063;28;20729;-62
2023/11/12 01:33:37;;;;;;;3.10;2.20;;;;;;;;;;5026960;28;20196;-62
2023/11/12 01:36:06;;;;;;;3.90;1.77;;;;;;;;;;5024183;28;20236;-62
2023/11/12 01:38:34;;;;;;;3.40;1.90;;;;;;;;;;5026542;28;20196;-62
2023/11/12 01:41:04;;;;;;;4.80;2.30;;;;;;;;;;5040419;28;20263;-62
2023/11/12 01:43:34;;;;;;;7.10;2.37;;;;;;;;;;5025054;28;20239;-62
2023/11/12 01:46:05;;;;;;;7.93;1.63;;;;;;;;;;5035423;28;20258;-62
2023/11/12 01:48:34;;;;;;;5.23;2.03;;;;;;;;;;5023371;28;20714;-62
2023/11/12 01:51:04;;;;;;;4.30;2.20;;;;;;;;;;5039114;28;20230;-63
2023/11/12 01:53:34;;;;;;;2.63;1.70;;;;;;;;;;5023201;28;20208;-62
2023/11/12 01:56:04;;;;;;;3.77;1.90;;;;;;;;;;5024134;28;20295;-62
2023/11/12 01:58:32;;;;;;;2.53;1.70;;;;;;;;;;5023062;28;20294;-63
2023/11/12 02:01:02;;;;;;;2.83;1.67;;;;;;;;;;5024254;28;20208;-62
2023/11/12 02:03:34;;;;;;;1.77;1.47;;;;;;;;;;5028260;28;20204;-63
2023/11/12 02:06:03;;;;;;;2.07;1.60;;;;;;;;;;5023917;28;20219;-63
2023/11/12 02:08:32;;;;;;;2.17;1.40;;;;;;;;;;5026712;28;20211;-62
2023/11/12 02:11:07;;;;;;;4.07;1.57;;;;;;;;;;5023934;28;20207;-63
2023/11/12 02:13:39;;;;;;;2.50;1.40;;;;;;;;;;5023834;28;20290;-62
2023/11/12 02:16:09;;;;;;;2.60;1.83;;;;;;;;;;5034815;28;20323;-63
2023/11/12 02:18:37;;;;;;;3.50;1.83;;;;;;;;;;5024753;28;20208;-63
2023/11/12 02:21:05;;;;;;;1.83;1.30;;;;;;;;;;5043694;28;20231;-62
2023/11/12 02:23:39;;;;;;;3.23;1.70;;;;;;;;;;5043374;28;20207;-63
2023/11/12 02:26:07;;;;;;;3.03;1.90;;;;;;;;;;5030282;28;20214;-62
2023/11/12 02:28:35;;;;;;;2.43;1.60;;;;;;;;;;5032922;28;20208;-63
2023/11/12 02:31:06;;;;;;;3.27;1.47;;;;;;;;;;5023837;28;20212;-63
2023/11/12 02:33:38;;;;;;;2.20;1.63;;;;;;;;;;5032754;28;20270;-66
2023/11/12 02:36:08;;;;;;;2.10;1.33;;;;;;;;;;5020415;28;20706;-63
2023/11/12 02:38:36;;;;;;;2.03;1.30;;;;;;;;;;5039353;28;20208;-66
2023/11/12 02:41:08;;;;;;;6.33;1.60;;;;;;;;;;5029247;28;20225;-65
2023/11/12 02:43:36;;;;;;;3.27;1.70;;;;;;;;;;5022562;28;20207;-63
2023/11/12 02:46:04;;;;;;;1.63;1.40;;;;;;;;;;5034108;28;20201;-63
2023/11/12 02:48:42;;;;;;;2.37;1.53;;;;;;;;;;5028669;28;20207;-63
2023/11/12 02:51:10;;;;;;;5.03;1.70;;;;;;;;;;5040149;28;20262;-63
2023/11/12 02:53:38;;;;;;;3.57;1.77;;;;;;;;;;5035574;28;20208;-63
2023/11/12 02:56:08;;;;;;;2.73;1.33;;;;;;;;;;5034646;28;20290;-63
2023/11/12 02:58:37;;;;;;;2.07;1.40;;;;;;;;;;5022994;28;20247;-62
2023/11/12 03:01:05;;;;;;;2.50;1.40;;;;;;;;;;5020212;28;20231;-63
2023/11/12 03:03:33;;;;;;;4.60;1.40;;;;;;;;;;5019101;28;20219;-63
2023/11/12 03:06:02;;;;;;;1.77;1.23;;;;;;;;;;5029569;28;20204;-63
2023/11/12 03:08:30;;;;;;;1.53;1.00;;;;;;;;;;5025396;28;20232;-63
2023/11/12 03:10:59;;;;;;;4.53;1.13;;;;;;;;;;5025054;28;20227;-63
2023/11/12 03:13:28;;;;;;;2.13;1.20;;;;;;;;;;5033531;28;20222;-64
2023/11/12 03:15:56;;;;;;;1.17;1.07;;;;;;;;;;5028436;28;20222;-63
2023/11/12 03:18:25;;;;;;;1.23;1.13;;;;;;;;;;5019522;28;20243;-62
2023/11/12 03:20:53;;;;;;;0.97;0.97;;;;;;;;;;5019221;28;20279;-63
2023/11/12 03:23:21;;;;;;;1.67;1.10;;;;;;;;;;5022590;28;20200;-62
2023/11/12 03:25:50;;;;;;;2.70;1.23;;;;;;;;;;5031647;28;20296;-62
2023/11/12 03:28:18;;;;;;;2.63;1.30;;;;;;;;;;5021363;28;20678;-63
2023/11/12 03:30:48;;;;;;;2.90;1.13;;;;;;;;;;5018861;28;20228;-62
2023/11/12 03:33:16;;;;;;;2.83;1.37;;;;;;;;;;5030068;28;20208;-64
2023/11/12 03:35:45;;;;;;;0.80;0.80;;;;;;;;;;5039289;28;20254;-63
2023/11/12 03:38:14;;;;;;;3.40;0.87;;;;;;;;;;5038205;28;20207;-66
2023/11/12 03:40:42;;;;;;;1.20;1.00;;;;;;;;;;5036597;28;21174;-66
2023/11/12 03:43:10;;;;;;;2.47;1.00;;;;;;;;;;5018931;28;20279;-63
2023/11/12 03:45:38;;;;;;;1.17;0.90;;;;;;;;;;5028913;28;20334;-63
2023/11/12 03:48:10;;;;;;;1.70;1.13;;;;;;;;;;5038218;28;20206;-63
2023/11/12 03:50:38;;;;;;;2.57;1.33;;;;;;;;;;5038267;28;20231;-64
2023/11/12 03:53:07;;;;;;;2.53;1.30;;;;;;;;;;5037866;28;20266;-63
2023/11/12 03:55:35;;;;;;;3.70;1.07;;;;;;;;;;5032866;28;20210;-63
2023/11/12 03:58:04;;;;;;;2.90;1.17;;;;;;;;;;5029637;28;20682;-64
2023/11/12 04:00:32;;;;;;;4.80;1.10;;;;;;;;;;5019079;28;20208;-64
2023/11/12 04:03:00;;;;;;;3.53;1.10;;;;;;;;;;5028038;28;20587;-63
2023/11/12 04:05:30;;;;;;;2.53;0.90;;;;;;;;;;5039085;28;20208;-63
2023/11/12 04:07:58;;;;;;;1.00;0.83;;;;;;;;;;5031427;28;20210;-63
2023/11/12 04:10:26;;;;;;;2.37;0.93;;;;;;;;;;5018751;28;20227;-63
2023/11/12 04:12:55;;;;;;;5.07;1.13;;;;;;;;;;5020265;28;20286;-63
2023/11/12 04:15:23;;;;;;;3.13;0.80;;;;;;;;;;5025329;28;20211;-62
2023/11/12 04:18:06;;;;;;;2.13;0.97;;;;;;;;;;5022235;28;20270;-63
2023/11/12 04:20:38;;;;;;;3.53;1.10;;;;;;;;;;5038656;28;20204;-63
2023/11/12 04:23:06;;;;;;;2.13;1.03;;;;;;;;;;5030019;28;20260;-63
2023/11/12 04:25:35;;;;;;;0.83;0.80;;;;;;;;;;5018677;28;20228;-67
2023/11/12 04:28:05;;;;;;;0.73;0.73;;;;;;;;;;5027942;28;20219;-64
2023/11/12 04:30:33;;;;;;;1.47;0.93;;;;;;;;;;5017044;28;20587;-65
2023/11/12 04:33:02;;;;;;;2.20;0.87;;;;;;;;;;5017986;28;20220;-66
2023/11/12 04:35:30;;;;;;;1.10;1.00;;;;;;;;;;5018121;28;20267;-67
2023/11/12 04:38:00;;;;;;;2.67;0.87;;;;;;;;;;5017663;28;20204;-63
2023/11/12 04:40:28;;;;;;;3.03;1.10;;;;;;;;;;5018237;28;20734;-65
2023/11/12 04:42:56;;;;;;;1.60;1.00;;;;;;;;;;5020199;28;20687;-65
2023/11/12 04:45:25;;;;;;;1.27;1.10;;;;;;;;;;5017827;28;20204;-65
2023/11/12 04:47:53;;;;;;;4.07;1.20;;;;;;;;;;5017775;28;20205;-65
2023/11/12 04:50:21;;;;;;;2.13;0.87;;;;;;;;;;5017468;28;20234;-66
2023/11/12 04:52:50;;;;;;;1.93;1.00;;;;;;;;;;5026040;28;20321;-66
2023/11/12 04:55:19;;;;;;;3.50;0.83;;;;;;;;;;5038125;28;20290;-68
2023/11/12 04:57:48;;;;;;;0.80;0.80;;;;;;;;;;5030745;28;20289;-64
2023/11/12 05:00:17;;;;;;;1.33;0.80;;;;;;;;;;5017673;28;20287;-67
2023/11/12 05:02:46;;;;;;;1.27;0.90;;;;;;;;;;5025224;28;20224;-66
2023/11/12 05:05:14;;;;;;;1.67;0.80;;;;;;;;;;5018044;28;20321;-68
2023/11/12 05:07:43;;;;;;;2.40;0.97;;;;;;;;;;5017677;28;20210;-68
2023/11/12 05:10:12;;;;;;;3.20;0.83;;;;;;;;;;5017846;28;20211;-67
2023/11/12 05:12:42;;;;;;;2.53;1.00;;;;;;;;;;5030564;28;20231;-67
2023/11/12 05:15:11;;;;;;;0.90;0.83;;;;;;;;;;5031745;28;20204;-67
2023/11/12 05:17:43;;;;;;;2.47;1.00;;;;;;;;;;5023768;28;20207;-67
2023/11/12 05:20:12;;;;;;;3.77;0.90;;;;;;;;;;5037755;28;20207;-67
2023/11/12 05:22:40;;;;;;;1.17;0.90;;;;;;;;;;5036447;28;20270;-66
2023/11/12 05:25:14;;;;;;;3.00;1.20;;;;;;;;;;5036834;28;20213;-68
2023/11/12 05:27:45;;;;;;;1.30;1.20;;;;;;;;;;5033309;28;20570;-67
2023/11/12 05:30:13;;;;;;;2.10;0.90;;;;;;;;;;5022181;28;20199;-66
2023/11/12 05:32:44;;;;;;;0.80;0.80;;;;;;;;;;5022807;28;20228;-68
2023/11/12 05:35:13;;;;;;;2.10;0.73;;;;;;;;;;5031540;28;20231;-68
2023/11/12 05:37:41;;;;;;;2.60;0.70;;;;;;;;;;5024414;28;20231;-69
2023/11/12 05:40:10;;;;;;;1.13;1.10;;;;;;;;;;5030358;28;20222;-67
2023/11/12 05:42:40;;;;;;;2.37;1.00;;;;;;;;;;5027325;28;20251;-67
2023/11/12 05:45:10;;;;;;;0.97;0.90;;;;;;;;;;5017148;28;20208;-68
2023/11/12 05:47:39;;;;;;;3.03;0.90;;;;;;;;;;5032639;28;20210;-68
2023/11/12 05:50:07;;;;;;;3.50;0.90;;;;;;;;;;5037307;28;20663;-68
2023/11/12 05:52:37;;;;;;;0.93;0.83;;;;;;;;;;5036495;28;20223;-69
2023/11/12 05:55:06;;;;;;;0.70;0.70;;;;;;;;;;5036987;28;20631;-69
2023/11/12 05:57:34;;;;;;;1.00;0.77;;;;;;;;;;5034260;28;20294;-69
2023/11/12 06:00:03;;;;;;;1.40;0.80;;;;;;;;;;5018013;28;20238;-69
2023/11/12 06:02:33;;;;;;;1.43;0.97;;;;;;;;;;5017553;28;20292;-68
2023/11/12 06:05:03;;;;;;;0.80;0.80;;;;;;;;;;5017312;28;20615;-69
2023/11/12 06:07:31;;;;;;;0.97;0.87;;;;;;;;;;5018293;28;20218;-68
2023/11/12 06:10:00;;;;;;;1.57;0.90;;;;;;;;;;5021171;28;20272;-69
2023/11/12 06:12:30;;;;;;;1.30;1.10;;;;;;;;;;5020942;28;20239;-68
2023/11/12 06:14:58;;;;;;;1.00;0.80;;;;;;;;;;5036553;28;20672;-68
2023/11/12 06:17:26;;;;;;;2.67;0.70;;;;;;;;;;5028678;28;20238;-68
2023/11/12 06:19:56;;;;;;;3.17;0.87;;;;;;;;;;5041014;28;20207;-68
2023/11/12 06:22:25;;;;;;;2.13;0.80;;;;;;;;;;5040567;28;20224;-69
2023/11/12 06:24:53;;;;;;;1.33;0.77;;;;;;;;;;5040505;28;20215;-69
2023/11/12 06:27:21;;;;;;;0.90;0.83;;;;;;;;;;5040516;28;20226;-68
2023/11/12 06:29:50;;;;;;;0.83;0.80;;;;;;;;;;5040646;28;20235;-68
2023/11/12 06:32:18;;;;;;;1.53;1.43;;;;;;;;;;5040511;28;20238;-68
2023/11/12 06:34:46;;;;;;;1.97;0.80;;;;;;;;;;5029862;28;20208;-68
2023/11/12 06:37:16;;;;;;;0.77;0.73;;;;;;;;;;5020449;28;20244;-68
2023/11/12 06:39:46;;;;;;;3.87;1.20;;;;;;;;;;5035529;28;20290;-67
2023/11/12 06:42:15;;;;;;;0.80;0.80;;;;;;;;;;5026578;28;20220;-68
2023/11/12 06:44:43;;;;;;;0.67;0.60;;;;;;;;;;5020413;28;20204;-69
2023/11/12 06:47:12;;;;;;;1.47;1.17;;;;;;;;;;5030821;28;20199;-68
2023/11/12 06:49:40;;;;;;;1.77;0.83;;;;;;;;;;5038985;28;20226;-69
2023/11/12 06:52:09;;;;;;;1.23;0.90;;;;;;;;;;5035335;28;20250;-69
2023/11/12 06:54:39;;;;;;;2.67;1.00;;;;;;;;;;5020340;28;20290;-68
2023/11/12 06:57:07;;;;;;;0.77;0.77;;;;;;;;;;5021766;28;20274;-68
2023/11/12 06:59:35;;;;;;;1.03;0.80;;;;;;;;;;5021442;28;20295;-68
2023/11/12 07:02:04;;;;;;;1.27;1.07;;;;;;;;;;5031011;28;20223;-68
2023/11/12 07:04:32;;;;;;;4.30;1.13;;;;;;;;;;5039088;28;20273;-68
2023/11/12 07:07:00;;;;;;;1.57;1.20;;;;;;;;;;5028085;28;20204;-68
2023/11/12 07:09:42;;;;;;;1.47;1.00;;;;;;;;;;5019800;28;20581;-68
2023/11/12 07:12:10;;;;;;;2.97;1.40;;;;;;;;;;5019325;28;20629;-68
2023/11/12 07:14:39;;;;;;;1.63;1.27;;;;;;;;;;5020134;28;20262;-68
2023/11/12 07:17:07;;;;;;;3.60;1.77;;;;;;;;;;5038182;28;20214;-68
2023/11/12 07:19:36;;;;;;;1.00;1.00;;;;;;;;;;5037927;28;20218;-68
2023/11/12 07:22:05;;;;;;;2.43;1.50;;;;;;;;;;5037492;28;20640;-68
2023/11/12 07:24:35;;;;;;;2.50;1.30;;;;;;;;;;5039354;28;20216;-68
2023/11/12 07:27:05;;;;;;;2.83;1.10;;;;;;;;;;5037345;28;21303;-68
2023/11/12 07:29:33;;;;;;;2.50;1.37;;;;;;;;;;5030362;28;20264;-68
2023/11/12 07:32:01;;;;;;;1.57;1.00;;;;;;;;;;5018959;28;20701;-68
2023/11/12 07:34:30;;;;;;;4.00;0.90;;;;;;;;;;5037164;28;20199;-68
2023/11/12 07:36:58;;;;;;;3.03;0.93;;;;;;;;;;5027635;28;20331;-68
2023/11/12 07:39:26;;;;;;;1.70;0.70;;;;;;;;;;5019460;28;20295;-68
2023/11/12 07:41:54;;;;;;;1.90;1.10;;;;;;;;;;5028667;28;20697;-68
2023/11/12 07:44:24;;;;;;;2.13;0.97;;;;;;;;;;5026766;28;20683;-68
2023/11/12 07:46:52;;;;;;;2.47;1.00;;;;;;;;;;5037971;28;20204;-68
2023/11/12 07:49:21;;;;;;;2.10;1.27;;;;;;;;;;5039008;28;20619;-68
2023/11/12 07:51:50;;;;;;;1.90;0.80;;;;;;;;;;5036718;28;20710;-68
2023/11/12 07:54:19;;;;;;;1.97;1.10;;;;;;;;;;5019015;28;20215;-68
2023/11/12 07:56:47;;;;;;;1.33;1.03;;;;;;;;;;5018411;28;20236;-68
2023/11/12 07:59:15;;;;;;;1.50;1.10;;;;;;;;;;5024054;28;20211;-68
2023/11/12 08:01:47;;;;;;;6.17;1.53;;;;;;;;;;5037835;28;20231;-69
2023/11/12 08:04:15;;;;;;;2.83;0.73;;;;;;;;;;5018726;28;20246;-68
2023/11/12 08:06:45;;;;;;;2.03;1.07;;;;;;;;;;5020529;28;20291;-67
2023/11/12 08:09:14;;;;;;;2.27;1.23;;;;;;;;;;5019062;28;20632;-68
2023/11/12 08:11:42;;;;;;;2.20;1.00;;;;;;;;;;5019769;28;20714;-69
2023/11/12 08:14:10;;;;;;;2.07;1.23;;;;;;;;;;5018768;28;20605;-67
2023/11/12 08:16:38;;;;;;;1.30;0.87;;;;;;;;;;5026349;28;20211;-67
2023/11/12 08:19:08;;;;;;;0.97;0.80;;;;;;;;;;5018686;28;20223;-67
2023/11/12 08:21:36;;;;;;;2.83;0.80;;;;;;;;;;5018712;28;20734;-69
2023/11/12 08:24:05;;;;;;;1.93;1.07;;;;;;;;;;5018666;28;20204;-69
2023/11/12 08:26:38;;;;;;;1.90;0.90;;;;;;;;;;5018033;28;20255;-69
2023/11/12 08:29:07;;;;;;;2.40;1.00;;;;;;;;;;5024823;28;20196;-69
2023/11/12 08:31:36;;;;;;;1.93;0.90;;;;;;;;;;5038062;28;20593;-70
2023/11/12 08:34:04;;;;;;;2.40;1.00;;;;;;;;;;5019806;28;20251;-69
2023/11/12 08:36:34;;;;;;;2.60;1.03;;;;;;;;;;5017899;28;20311;-69
2023/11/12 08:39:03;;;;;;;1.13;1.03;;;;;;;;;;5033132;28;20211;-69
2023/11/12 08:41:32;;;;;;;2.23;0.90;;;;;;;;;;5035853;28;20292;-70
2023/11/12 08:44:00;;;;;;;3.63;1.00;;;;;;;;;;5028172;28;20738;-69
2023/11/12 08:46:28;;;;;;;2.63;1.03;;;;;;;;;;5020143;28;20201;-70
2023/11/12 08:48:57;;;;;;;4.63;1.27;;;;;;;;;;5029251;28;20612;-69
2023/11/12 08:51:25;;;;;;;6.63;1.37;;;;;;;;;;5037835;28;20281;-68
2023/11/12 08:53:54;;;;;;;2.73;1.10;;;;;;;;;;5036563;28;20227;-68
2023/11/12 08:56:23;;;;;;;2.10;1.07;;;;;;;;;;5038011;28;20266;-70
2023/11/12 08:58:51;;;;;;;2.10;0.90;;;;;;;;;;5026290;28;20208;-67
2023/11/12 09:01:19;;;;;;;2.70;1.00;;;;;;;;;;5024413;28;20219;-69
2023/11/12 09:03:48;;;;;;;1.70;0.93;;;;;;;;;;5036939;28;20200;-69
2023/11/12 09:06:16;;;;;;;2.60;1.40;;;;;;;;;;5037767;28;20215;-69
2023/11/12 09:08:45;;;;;;;3.20;1.27;;;;;;;;;;5028681;28;20259;-69
2023/11/12 09:11:15;;;;;;;1.77;1.00;;;;;;;;;;5018039;28;20231;-69
2023/11/12 09:13:45;;;;;;;1.40;0.97;;;;;;;;;;5018036;28;20224;-70
2023/11/12 09:16:13;;;;;;;2.80;1.10;;;;;;;;;;5028559;28;20239;-69
2023/11/12 09:18:41;;;;;;;3.70;1.13;;;;;;;;;;5017823;28;20204;-70
2023/11/12 09:21:09;;;;;;;1.67;1.00;;;;;;;;;;5017775;28;20676;-69
2023/11/12 09:23:38;;;;;;;3.20;1.30;;;;;;;;;;5025963;28;20651;-69
2023/11/12 09:26:06;;;;;;;1.80;1.00;;;;;;;;;;5037705;28;20212;-69
2023/11/12 09:28:38;;;;;;;1.10;1.00;;;;;;;;;;5034403;28;20286;-69
2023/11/12 09:31:06;;;;;;;3.10;1.47;;;;;;;;;;5036738;28;20227;-70
2023/11/12 09:33:34;;;;;;;1.33;1.10;;;;;;;;;;5035927;28;20227;-69
2023/11/12 09:36:03;;;;;;;1.53;1.00;;;;;;;;;;5020722;28;20231;-69
2023/11/12 09:38:31;;;;;;;2.30;1.23;;;;;;;;;;5029378;28;20287;-69
2023/11/12 09:40:59;;;;;;;2.37;1.27;;;;;;;;;;5020573;28;20207;-69
2023/11/12 09:43:29;;;;;;;1.70;1.20;;;;;;;;;;5037692;28;20234;-70
2023/11/12 09:45:59;;;;;;;1.93;1.17;;;;;;;;;;5040472;28;20217;-70
2023/11/12 09:48:31;;;;;;;1.20;1.10;;;;;;;;;;5027756;28;20207;-69
2023/11/12 09:50:59;;;;;;;3.60;1.40;;;;;;;;;;5035153;28;20210;-69
2023/11/12 09:53:28;;;;;;;2.53;1.60;;;;;;;;;;5027307;28;20306;-70
2023/11/12 09:56:04;;;;;;;1.90;1.30;;;;;;;;;;5041207;28;20214;-69
2023/11/12 09:58:33;;;;;;;2.70;1.40;;;;;;;;;;5036597;28;20290;-70
2023/11/12 10:01:05;;;;;;;3.90;1.77;;;;;;;;;;5022918;28;20208;-69
2023/11/12 10:03:35;;;;;;;3.03;1.47;;;;;;;;;;5031427;28;20559;-67
2023/11/12 10:06:05;;;;;;;2.57;1.50;;;;;;;;;;5021192;28;20548;-69
2023/11/12 10:08:34;;;;;;;1.47;0.93;;;;;;;;;;5021617;28;20288;-68
2023/11/12 10:11:15;;;;;;;1.50;1.40;;;;;;;;;;5021046;28;20208;-69
2023/11/12 10:13:43;;;;;;;3.87;1.57;;;;;;;;;;5033519;28;20335;-67
2023/11/12 10:16:30;;;;;;;2.07;1.33;;;;;;;;;;5040117;28;20286;-67
2023/11/12 10:19:13;;;;;;;2.63;1.43;;;;;;;;;;5040689;28;20204;-69
2023/11/12 10:21:58;;;;;;;1.53;1.40;;;;;;;;;;5040910;28;20234;-69
2023/11/12 10:24:27;;;;;;;3.43;1.20;;;;;;;;;;5040028;28;20211;-68
2023/11/12 10:26:57;;;;;;;3.73;1.37;;;;;;;;;;5020900;28;20564;-69
2023/11/12 10:29:27;;;;;;;3.07;1.33;;;;;;;;;;5038246;28;20659;-68
2023/11/12 10:31:57;;;;;;;2.10;1.30;;;;;;;;;;5040706;28;20286;-69
2023/11/12 10:34:26;;;;;;;2.13;1.17;;;;;;;;;;5039263;28;20698;-68
2023/11/12 10:37:02;;;;;;;1.37;1.27;;;;;;;;;;5039256;28;20245;-69
2023/11/12 10:39:35;;;;;;;2.03;1.17;;;;;;;;;;5039357;28;20199;-68
2023/11/12 10:42:05;;;;;;;3.27;1.40;;;;;;;;;;5028433;28;20274;-68
2023/11/12 10:44:34;;;;;;;4.37;1.20;;;;;;;;;;5036395;28;20264;-69
2023/11/12 10:47:06;;;;;;;2.27;1.17;;;;;;;;;;5031175;28;20206;-68
2023/11/12 10:49:39;;;;;;;1.03;1.00;;;;;;;;;;5033925;28;20235;-68
2023/11/12 10:52:08;;;;;;;3.10;1.63;;;;;;;;;;5029944;28;20282;-69
2023/11/12 10:54:37;;;;;;;1.57;1.13;;;;;;;;;;5037857;28;20220;-69
2023/11/12 10:57:06;;;;;;;1.63;1.27;;;;;;;;;;5039818;28;20683;-68
2023/11/12 10:59:35;;;;;;;4.30;1.57;;;;;;;;;;5026391;28;20247;-69
2023/11/12 11:02:05;;;;;;;2.10;1.40;;;;;;;;;;5021826;28;20238;-69
2023/11/12 11:04:33;;;;;;;2.93;1.33;;;;;;;;;;5030228;28;20196;-68
2023/11/12 11:07:02;;;;;;;2.63;1.40;;;;;;;;;;5035323;28;20211;-68
2023/11/12 11:09:30;;;;;;;4.27;1.40;;;;;;;;;;5029291;28;20290;-68
2023/11/12 11:11:58;;;;;;;5.87;1.37;;;;;;;;;;5030454;28;20655;-69
2023/11/12 11:14:28;;;;;;;6.77;1.90;;;;;;;;;;5019745;28;20224;-68
2023/11/12 11:16:57;;;;;;;1.50;1.30;;;;;;;;;;5030902;28;20208;-69
2023/11/12 11:19:43;;;;;;;4.20;1.47;;;;;;;;;;5035159;28;20253;-69
2023/11/12 11:22:27;;;;;;;1.57;1.43;;;;;;;;;;5019085;28;20586;-69
2023/11/12 11:24:56;;;;;;;3.57;1.23;;;;;;;;;;5020002;28;20235;-68
2023/11/12 11:27:25;;;;;;;4.30;1.67;;;;;;;;;;5019306;28;20722;-68
2023/11/12 11:30:08;;;;;;;2.23;1.30;;;;;;;;;;5030916;28;20570;-69
2023/11/12 11:32:37;;;;;;;2.10;1.33;;;;;;;;;;5020565;28;20289;-68
2023/11/12 11:35:16;;;;;;;2.27;1.30;;;;;;;;;;5039550;28;20289;-69
2023/11/12 11:38:03;;;;;;;1.77;1.43;;;;;;;;;;5005251;28;20272;-69
2023/11/12 11:40:34;;;;;;;4.27;1.60;;;;;;;;;;5000143;28;20291;-68
2023/11/12 11:43:17;;;;;;;3.97;1.50;;;;;;;;;;5012866;28;20227;-68
2023/11/12 11:46:00;;;;;;;5.17;1.80;;;;;;;;;;4984135;28;20299;-69
2023/11/12 11:48:28;;;;;;;3.70;1.60;;;;;;;;;;4998544;28;20291;-69
2023/11/12 11:50:57;;;;;;;2.40;1.27;;;;;;;;;;4999957;28;20218;-69
2023/11/12 11:53:28;;;;;;;2.33;1.50;;;;;;;;;;5000977;28;20574;-68
2023/11/12 11:56:00;;;;;;;1.63;1.40;;;;;;;;;;5019405;28;20267;-69
2023/11/12 11:58:30;;;;;;;2.83;1.67;;;;;;;;;;5013386;28;20212;-69
2023/11/12 12:00:58;;;;;;;4.40;2.30;;;;;;;;;;4998964;28;20201;-69
2023/11/12 12:03:27;;;;;;;4.80;1.80;;;;;;;;;;5006848;28;20227;-68
2023/11/12 12:05:57;;;;;;;3.70;1.50;;;;;;;;;;5004369;28;20201;-69
2023/11/12 12:08:25;;;;;;;2.40;1.40;;;;;;;;;;5002600;28;20209;-69
2023/11/12 12:10:53;;;;;;;4.83;1.90;;;;;;;;;;4999125;28;20680;-69
2023/11/12 12:13:25;;;;;;;5.70;1.90;;;;;;;;;;5004898;28;20290;-69
2023/11/12 12:15:53;;;;;;;2.77;1.77;;;;;;;;;;5009723;28;20722;-69
2023/11/12 12:18:23;;;;;;;5.97;1.73;;;;;;;;;;4999198;28;20208;-68
2023/11/12 12:20:53;;;;;;;3.23;1.50;;;;;;;;;;4999017;28;20213;-68
2023/11/12 12:23:22;;;;;;;1.90;1.33;;;;;;;;;;4998858;28;20291;-68
2023/11/12 12:25:51;;;;;;;4.77;1.90;;;;;;;;;;4998782;28;20243;-68
2023/11/12 12:28:20;;;;;;;3.63;1.87;;;;;;;;;;5011474;28;20204;-68
2023/11/12 12:30:53;;;;;;;4.13;1.83;;;;;;;;;;5014474;28;20347;-69
2023/11/12 12:33:22;;;;;;;3.27;1.53;;;;;;;;;;5009289;28;20201;-68
2023/11/12 12:35:51;;;;;;;6.60;2.00;;;;;;;;;;5003143;28;20236;-68
2023/11/12 12:38:19;;;;;;;3.73;2.07;;;;;;;;;;5017334;28;20263;-68
2023/11/12 12:40:51;;;;;;;4.50;1.77;;;;;;;;;;5022178;28;20210;-70
2023/11/12 12:43:20;;;;;;;3.27;1.83;;;;;;;;;;5036971;28;20242;-67
2023/11/12 12:45:57;;;;;;;5.00;1.57;;;;;;;;;;5018711;28;20280;-68
2023/11/12 12:48:27;;;;;;;2.50;1.70;;;;;;;;;;5026695;28;20206;-68
2023/11/12 12:50:59;;;;;;;3.63;1.40;;;;;;;;;;5024041;28;20573;-67
2023/11/12 12:53:27;;;;;;;3.73;1.20;;;;;;;;;;5017655;28;20204;-68
2023/11/12 12:55:56;;;;;;;4.40;1.40;;;;;;;;;;5017002;28;20232;-68
2023/11/12 12:58:37;;;;;;;2.20;1.50;;;;;;;;;;5025495;28;20263;-68
2023/11/12 13:01:10;;;;;;;3.67;1.80;;;;;;;;;;5038021;28;20314;-68
2023/11/12 13:03:41;;;;;;;5.73;1.80;;;;;;;;;;5033325;28;20208;-68
2023/11/12 13:06:09;;;;;;;3.63;1.73;;;;;;;;;;5030987;28;20559;-68
2023/11/12 13:08:38;;;;;;;2.50;1.40;;;;;;;;;;5036454;28;20600;-67
2023/11/12 13:11:07;;;;;;;7.03;1.77;;;;;;;;;;5036057;28;20226;-67
2023/11/12 13:13:36;;;;;;;3.07;1.50;;;;;;;;;;5017374;28;20620;-68
2023/11/12 13:16:09;;;;;;;5.60;1.53;;;;;;;;;;5029199;28;20255;-68
2023/11/12 13:18:40;;;;;;;1.80;1.37;;;;;;;;;;5036075;28;20291;-68
2023/11/12 13:21:10;;;;;;;4.43;1.40;;;;;;;;;;5036454;28;20321;-68
2023/11/12 13:23:38;;;;;;;2.90;1.40;;;;;;;;;;5036375;28;20667;-68
2023/11/12 13:26:06;;;;;;;3.97;1.70;;;;;;;;;;5026100;28;20231;-67
2023/11/12 13:28:36;;;;;;;3.57;1.40;;;;;;;;;;5021889;28;20199;-69
2023/11/12 13:31:04;;;;;;;4.00;1.43;;;;;;;;;;5037518;28;20233;-68
2023/11/12 13:33:34;;;;;;;4.53;1.60;;;;;;;;;;5036700;28;20287;-68
2023/11/12 13:36:03;;;;;;;2.60;1.20;;;;;;;;;;5022719;28;20236;-68
2023/11/12 13:38:32;;;;;;;2.83;1.60;;;;;;;;;;5016167;28;20664;-68
2023/11/12 13:41:02;;;;;;;2.13;1.33;;;;;;;;;;5020583;28;20205;-68
2023/11/12 13:43:33;;;;;;;3.50;1.37;;;;;;;;;;5026183;28;20238;-68
2023/11/12 13:46:01;;;;;;;2.90;1.30;;;;;;;;;;5031376;28;20204;-68
2023/11/12 13:48:29;;;;;;;2.63;1.40;;;;;;;;;;5035975;28;20222;-68
2023/11/12 13:51:02;;;;;;;3.33;1.40;;;;;;;;;;5037397;28;20211;-68
2023/11/12 13:53:30;;;;;;;3.33;1.10;;;;;;;;;;5036199;28;20207;-68
2023/11/12 13:55:59;;;;;;;2.73;1.40;;;;;;;;;;5029881;28;20220;-67
2023/11/12 13:58:29;;;;;;;3.47;1.40;;;;;;;;;;5023135;28;20208;-66
2023/11/12 14:00:57;;;;;;;11.50;4.90;;;;;;;;;;5035975;28;20287;-67
2023/11/12 14:03:25;;;;;;;3.17;1.47;;;;;;;;;;5020262;28;20219;-68
2023/11/12 14:05:54;;;;;;;3.67;1.40;;;;;;;;;;5017549;28;20197;-68
2023/11/12 14:08:25;;;;;;;3.20;1.80;;;;;;;;;;5020051;28;20282;-68
2023/11/12 14:10:55;;;;;;;1.80;1.10;;;;;;;;;;5017387;28;20205;-68
2023/11/12 14:13:23;;;;;;;4.47;1.70;;;;;;;;;;5024159;28;20290;-68
2023/11/12 14:15:52;;;;;;;3.43;1.43;;;;;;;;;;5028089;28;20589;-68
2023/11/12 14:18:22;;;;;;;3.50;1.33;;;;;;;;;;5017192;28;20576;-67
2023/11/12 14:20:50;;;;;;;1.77;1.20;;;;;;;;;;5017279;28;20239;-67
2023/11/12 14:23:19;;;;;;;4.47;1.70;;;;;;;;;;5016954;28;20695;-67
2023/11/12 14:25:51;;;;;;;4.37;1.47;;;;;;;;;;5016951;28;20311;-67
2023/11/12 14:28:23;;;;;;;1.63;1.33;;;;;;;;;;5015937;28;20215;-67
2023/11/12 14:30:51;;;;;;;2.63;2.00;;;;;;;;;;5020479;28;20243;-67
2023/11/12 14:33:19;;;;;;;3.97;1.53;;;;;;;;;;5035409;28;20947;-67
2023/11/12 14:35:48;;;;;;;4.90;1.70;;;;;;;;;;5019968;28;20232;-67
2023/11/12 14:38:17;;;;;;;2.80;1.30;;;;;;;;;;5019971;28;20204;-67
2023/11/12 14:40:51;;;;;;;3.63;1.40;;;;;;;;;;5021769;28;20212;-67
2023/11/12 14:43:19;;;;;;;3.93;1.53;;;;;;;;;;5027617;28;20287;-68
2023/11/12 14:45:48;;;;;;;3.80;1.43;;;;;;;;;;5035587;28;20204;-68
2023/11/12 14:48:16;;;;;;;2.97;2.03;;;;;;;;;;5039354;28;20203;-67
2023/11/12 14:50:45;;;;;;;2.97;1.33;;;;;;;;;;5039370;28;20203;-68
2023/11/12 14:53:13;;;;;;;3.37;1.40;;;;;;;;;;5038799;28;20574;-68
2023/11/12 14:55:41;;;;;;;4.00;1.40;;;;;;;;;;5040208;28;20266;-67
2023/11/12 14:58:11;;;;;;;5.97;1.60;;;;;;;;;;5033837;28;20200;-67